Argillite, Kentucky
Current Conditions -  °F | °C
As of 2:55 AM on Friday 31 Oct 2014 (Local Time) from KDWU Reporting Station
Broken Clouds Broken Clouds  
Wind Chill: 36°   Ceiling: 12000
Heat Index: 36°   Visibility: 10mi
Dew Point: 30°   Wind: 3mph
Humidity: 81%   Direction: 280°W
Pressure: 30.02"   Gusts: NA
Location:  38.51°N, 82.87°W
Report Text: KDWU 310655Z AUTO 28003KT 10SM SCT003 BKN120 02/M01 A3002 RMK AO1
Loading
Personal Weather Stations






























Interactive Weather Map
Tropical Storm Tracking
New forecast layout! Learn more

10-Day Weather Forecast

Advertisements
Track Severe Weather on mobile